createdAt,value
2018-08-03T00:02:27.012Z,6.57
2018-08-03T00:04:55.185Z,5.77
2018-08-03T00:07:23.690Z,3.70
2018-08-03T00:09:52.381Z,8.87
2018-08-03T00:12:20.886Z,3.27
2018-08-03T00:14:51.184Z,4.83
2018-08-03T00:17:21.713Z,3.20
2018-08-03T00:19:51.201Z,4.77
2018-08-03T00:22:19.753Z,6.90
2018-08-03T00:24:48.435Z,7.13
2018-08-03T00:27:16.976Z,6.20
2018-08-03T00:29:45.670Z,4.60
2018-08-03T00:32:14.352Z,10.63
2018-08-03T00:34:43.219Z,3.60
2018-08-03T00:37:11.715Z,6.47
2018-08-03T00:39:40.215Z,5.23
2018-08-03T00:42:08.719Z,3.40
2018-08-03T00:44:37.243Z,3.93
2018-08-03T00:47:05.783Z,6.50
2018-08-03T00:49:34.310Z,6.60
2018-08-03T00:52:03.255Z,4.70
2018-08-03T00:54:31.795Z,3.80
2018-08-03T00:57:00.334Z,4.13
2018-08-03T00:59:28.857Z,6.47
2018-08-03T01:01:57.318Z,5.60
2018-08-03T01:04:26.183Z,4.47
2018-08-03T01:06:54.651Z,5.67
2018-08-03T01:09:23.115Z,5.17
2018-08-03T01:11:51.632Z,5.70
2018-08-03T01:14:20.139Z,5.03
2018-08-03T01:16:48.624Z,5.37
2018-08-03T01:19:17.479Z,3.63
2018-08-03T01:21:46.163Z,4.17
2018-08-03T01:24:14.639Z,5.93
2018-08-03T01:26:43.132Z,5.23
2018-08-03T01:29:11.599Z,7.87
2018-08-03T01:31:40.106Z,6.47
2018-08-03T01:34:08.859Z,5.73
2018-08-03T01:36:37.331Z,5.07
2018-08-03T01:39:07.843Z,7.70
2018-08-03T01:41:36.412Z,6.83
2018-08-03T01:44:04.971Z,6.53
2018-08-03T01:46:33.476Z,5.30
2018-08-03T01:49:02.316Z,7.23
2018-08-03T01:51:30.795Z,4.03
2018-08-03T01:53:59.279Z,5.93
2018-08-03T01:56:28.031Z,4.30
2018-08-03T01:58:56.620Z,6.77
2018-08-03T02:01:25.599Z,5.73
2018-08-03T02:03:54.090Z,8.23
2018-08-03T02:06:22.631Z,6.77
2018-08-03T02:08:51.590Z,4.77
2018-08-03T02:11:20.056Z,6.40
2018-08-03T02:14:04.596Z,4.83
2018-08-03T02:16:34.164Z,6.47
2018-08-03T02:19:03.012Z,6.43
2018-08-03T02:21:31.855Z,5.27
2018-08-03T02:24:00.380Z,4.90
2018-08-03T02:26:28.851Z,4.50
2018-08-03T02:28:57.325Z,4.40
2018-08-03T02:31:26.354Z,6.20
2018-08-03T02:33:54.852Z,5.47
2018-08-03T02:36:23.679Z,7.63
2018-08-03T02:38:52.467Z,6.70
2018-08-03T02:41:21.005Z,6.97
2018-08-03T02:43:49.515Z,4.47
2018-08-03T02:46:18.259Z,4.73
2018-08-03T02:48:46.764Z,5.83
2018-08-03T02:51:15.303Z,6.03
2018-08-03T02:53:43.824Z,5.77
2018-08-03T02:56:12.480Z,8.37
2018-08-03T02:58:40.991Z,5.50
2018-08-03T03:01:09.718Z,6.87
2018-08-03T03:03:38.202Z,8.60
2018-08-03T03:06:06.782Z,8.47
2018-08-03T03:08:35.235Z,5.80
2018-08-03T03:11:04.875Z,7.67
2018-08-03T03:13:33.359Z,7.00
2018-08-03T03:16:01.886Z,6.43
2018-08-03T03:18:30.395Z,8.20
2018-08-03T03:20:58.583Z,8.83
2018-08-03T03:23:27.078Z,7.00
2018-08-03T03:25:55.697Z,7.40
2018-08-03T03:28:24.258Z,9.30
2018-08-03T03:30:52.768Z,8.23
2018-08-03T03:33:21.313Z,8.20
2018-08-03T03:35:50.208Z,8.00
2018-08-03T03:38:18.752Z,8.03
2018-08-03T03:40:47.280Z,9.60
2018-08-03T03:43:15.785Z,7.53
2018-08-03T03:45:44.311Z,7.00
2018-08-03T03:48:12.808Z,7.10
2018-08-03T03:50:41.315Z,7.03
2018-08-03T03:53:10.544Z,7.77
2018-08-03T03:55:39.079Z,8.10
2018-08-03T03:58:07.622Z,9.73
2018-08-03T04:00:36.172Z,8.57
2018-08-03T04:03:04.643Z,9.30
2018-08-03T04:05:33.155Z,9.43
2018-08-03T04:08:01.644Z,7.97
2018-08-03T04:10:30.131Z,7.83
2018-08-03T04:12:58.627Z,10.00
2018-08-03T04:15:27.126Z,10.13
2018-08-03T04:17:55.630Z,12.60
2018-08-03T04:20:24.199Z,7.90
2018-08-03T04:22:52.678Z,9.57
2018-08-03T04:25:21.184Z,7.10
2018-08-03T04:27:49.682Z,9.07
2018-08-03T04:30:18.212Z,8.70
2018-08-03T04:32:46.750Z,7.67
2018-08-03T04:35:15.607Z,9.53
2018-08-03T04:37:44.318Z,7.97
2018-08-03T04:40:12.828Z,7.33
2018-08-03T04:42:41.350Z,8.63
2018-08-03T04:45:09.539Z,7.40
2018-08-03T04:47:38.055Z,9.50
2018-08-03T04:50:06.548Z,11.33
2018-08-03T04:52:35.060Z,10.07
2018-08-03T04:55:03.795Z,9.43
2018-08-03T04:57:32.666Z,10.53
2018-08-03T05:00:01.187Z,10.00
2018-08-03T05:02:29.701Z,10.67
2018-08-03T05:04:58.205Z,11.73
2018-08-03T05:07:26.389Z,10.47
2018-08-03T05:09:54.927Z,10.33
2018-08-03T05:12:23.559Z,12.87
2018-08-03T05:14:52.038Z,10.27
2018-08-03T05:17:20.554Z,11.30
2018-08-03T05:19:49.099Z,10.30
2018-08-03T05:22:17.289Z,10.87
2018-08-03T05:24:45.850Z,11.03
2018-08-03T05:27:14.362Z,9.80
2018-08-03T05:29:42.902Z,10.23
2018-08-03T05:32:11.433Z,10.57
2018-08-03T05:34:40.004Z,10.43
2018-08-03T05:37:08.516Z,9.50
2018-08-03T05:39:37.078Z,9.60
2018-08-03T05:42:05.667Z,10.30
2018-08-03T05:44:34.219Z,10.67
2018-08-03T05:47:02.724Z,10.80
2018-08-03T05:49:31.254Z,11.03
2018-08-03T05:51:59.758Z,10.77
2018-08-03T05:54:28.707Z,10.77
2018-08-03T05:58:21.643Z,11.73
2018-08-03T06:00:50.244Z,14.53
2018-08-03T06:03:18.846Z,11.77
2018-08-03T06:05:47.403Z,12.73
2018-08-03T06:08:16.017Z,11.17
2018-08-03T06:10:44.676Z,15.90
2018-08-03T06:13:13.203Z,11.90
2018-08-03T06:15:41.912Z,11.97
2018-08-03T06:18:10.470Z,10.63
2018-08-03T06:20:39.053Z,12.77
2018-08-03T06:23:07.734Z,12.13
2018-08-03T06:25:36.438Z,16.53
2018-08-03T06:28:05.032Z,11.97
2018-08-03T06:30:33.624Z,11.17
2018-08-03T06:33:02.394Z,12.57
2018-08-03T06:35:31.771Z,12.60
2018-08-03T06:38:00.283Z,13.87
2018-08-03T06:40:29.172Z,13.57
2018-08-03T06:42:57.747Z,12.00
2018-08-03T06:45:26.806Z,14.47
2018-08-03T06:47:55.912Z,15.43
2018-08-03T06:50:24.988Z,17.35
2018-08-03T06:52:54.107Z,11.75
2018-08-03T06:55:23.198Z,16.90
2018-08-03T06:57:52.260Z,14.25
2018-08-03T07:00:21.352Z,13.60
2018-08-03T07:02:50.748Z,10.70
2018-08-03T07:05:19.894Z,15.48
2018-08-03T07:07:48.964Z,12.60
2018-08-03T07:10:18.099Z,11.25
2018-08-03T07:12:48.574Z,14.55
2018-08-03T07:15:17.713Z,15.55
2018-08-03T07:17:46.791Z,23.27
2018-08-03T07:20:16.586Z,19.23
2018-08-03T07:22:46.693Z,16.12
2018-08-03T07:25:16.114Z,14.10
2018-08-03T07:27:45.571Z,19.30
2018-08-03T07:30:14.755Z,11.08
2018-08-03T07:32:44.218Z,11.80
2018-08-03T07:35:13.347Z,15.93
2018-08-03T07:37:42.743Z,15.10
2018-08-03T07:40:12.803Z,14.28
2018-08-03T07:42:41.887Z,8.53
2018-08-03T07:45:11.288Z,18.35
2018-08-03T07:47:40.983Z,14.60
2018-08-03T07:50:10.657Z,9.25
2018-08-03T07:52:39.708Z,11.20
2018-08-03T07:55:08.771Z,11.60
2018-08-03T07:57:37.950Z,8.83
2018-08-03T08:00:07.711Z,8.98
2018-08-03T08:02:36.755Z,14.68
2018-08-03T08:05:05.847Z,9.83
2018-08-03T08:07:34.912Z,12.03
2018-08-03T08:10:04.144Z,8.20
2018-08-03T08:12:33.206Z,11.28
2018-08-03T08:15:02.285Z,8.00
2018-08-03T08:17:31.351Z,10.75
2018-08-03T08:20:00.418Z,9.05
2018-08-03T08:22:29.477Z,8.70
2018-08-03T08:24:58.883Z,7.10
2018-08-03T08:27:28.318Z,8.25
2018-08-03T08:29:57.597Z,7.95
2018-08-03T08:32:27.403Z,7.60
2018-08-03T08:34:56.445Z,7.10
2018-08-03T08:37:25.479Z,8.33
2018-08-03T08:39:54.591Z,14.25
2018-08-03T08:42:23.670Z,10.28
2018-08-03T08:44:52.716Z,10.85
2018-08-03T08:47:21.780Z,12.75
2018-08-03T08:49:50.830Z,10.70
2018-08-03T08:52:19.918Z,11.95
2018-08-03T08:54:48.981Z,8.88
2018-08-03T08:57:18.228Z,8.78
2018-08-03T08:59:47.534Z,9.43
2018-08-03T09:02:16.598Z,10.50
2018-08-03T09:04:45.324Z,12.50
2018-08-03T09:07:14.394Z,11.75
2018-08-03T09:09:43.429Z,8.18
2018-08-03T09:12:12.538Z,12.13
2018-08-03T09:14:41.597Z,10.13
2018-08-03T09:17:10.943Z,9.15
2018-08-03T09:19:39.992Z,7.75
2018-08-03T09:22:09.124Z,7.85
2018-08-03T09:24:38.358Z,8.63
2018-08-03T09:27:07.591Z,8.88
2018-08-03T09:29:36.660Z,11.45
2018-08-03T09:32:05.758Z,8.45
2018-08-03T09:34:34.810Z,6.78
2018-08-03T09:37:03.901Z,11.03
2018-08-03T09:39:32.914Z,7.17
2018-08-03T09:42:01.998Z,7.15
2018-08-03T09:44:31.031Z,7.00
2018-08-03T09:47:00.422Z,11.45
2018-08-03T09:49:29.459Z,7.55
2018-08-03T09:51:58.500Z,7.72
2018-08-03T09:54:27.629Z,7.03
2018-08-03T09:56:56.823Z,6.25
2018-08-03T09:59:25.867Z,6.78
2018-08-03T10:01:54.872Z,6.80
2018-08-03T10:04:23.952Z,6.37
2018-08-03T10:06:52.975Z,9.43
2018-08-03T10:09:22.034Z,7.97
2018-08-03T10:11:51.067Z,6.10
2018-08-03T10:14:20.124Z,8.50
2018-08-03T10:16:49.170Z,6.92
2018-08-03T10:19:18.217Z,5.30
2018-08-03T10:21:47.247Z,5.58
2018-08-03T10:24:16.312Z,5.53
2018-08-03T10:26:45.363Z,4.42
2018-08-03T10:29:14.407Z,6.60
2018-08-03T10:31:43.426Z,5.40
2018-08-03T10:34:12.846Z,4.70
2018-08-03T10:36:41.881Z,4.85
2018-08-03T10:39:11.378Z,7.72
2018-08-03T10:41:40.936Z,7.12
2018-08-03T10:44:10.968Z,6.90
2018-08-03T10:46:40.346Z,5.62
2018-08-03T10:49:09.395Z,4.83
2018-08-03T10:51:38.572Z,8.10
2018-08-03T10:54:07.673Z,9.68
2018-08-03T10:56:36.727Z,6.00
2018-08-03T10:59:05.884Z,4.90
2018-08-03T11:01:35.001Z,5.30
2018-08-03T11:04:04.221Z,5.53
2018-08-03T11:06:33.485Z,8.50
2018-08-03T11:09:02.575Z,8.08
2018-08-03T11:11:31.594Z,5.55
2018-08-03T11:14:01.020Z,7.10
2018-08-03T11:16:30.221Z,6.70
2018-08-03T11:18:59.271Z,4.80
2018-08-03T11:21:28.342Z,5.97
2018-08-03T11:23:57.415Z,7.05
2018-08-03T11:26:26.439Z,6.40
2018-08-03T11:28:55.474Z,4.78
2018-08-03T11:31:24.224Z,6.17
2018-08-03T11:33:53.642Z,4.42
2018-08-03T11:36:22.699Z,8.90
2018-08-03T11:38:51.713Z,5.62
2018-08-03T11:41:20.822Z,4.67
2018-08-03T11:43:49.871Z,4.92
2018-08-03T11:46:18.926Z,5.90
2018-08-03T11:48:47.952Z,6.10
2018-08-03T11:51:17.009Z,6.30
2018-08-03T11:53:46.034Z,4.35
2018-08-03T11:56:15.408Z,5.08
2018-08-03T11:58:44.470Z,5.25
2018-08-03T12:01:13.523Z,4.97
2018-08-03T12:03:42.936Z,4.85
2018-08-03T12:06:11.796Z,4.83
2018-08-03T12:08:40.864Z,6.05
2018-08-03T12:11:09.903Z,6.75
2018-08-03T12:13:38.951Z,5.15
2018-08-03T12:16:08.087Z,5.35
2018-08-03T12:18:37.159Z,7.00
2018-08-03T12:21:06.574Z,7.60
2018-08-03T12:23:35.716Z,5.28
2018-08-03T12:26:04.879Z,6.03
2018-08-03T12:28:33.971Z,10.10
2018-08-03T12:31:03.007Z,4.87
2018-08-03T12:33:32.067Z,5.53
2018-08-03T12:36:01.098Z,5.22
2018-08-03T12:38:30.159Z,5.47
2018-08-03T12:40:59.190Z,7.30
2018-08-03T12:43:28.243Z,6.87
2018-08-03T12:45:57.690Z,11.25
2018-08-03T12:48:27.032Z,5.37
2018-08-03T12:50:56.407Z,4.62
2018-08-03T12:53:25.456Z,5.78
2018-08-03T12:55:54.482Z,9.50
2018-08-03T12:58:23.506Z,5.45
2018-08-03T13:00:52.575Z,8.88
2018-08-03T13:03:21.623Z,6.22
2018-08-03T13:05:50.695Z,9.98
2018-08-03T13:08:19.949Z,7.20
2018-08-03T13:10:49.023Z,9.73
2018-08-03T13:13:18.162Z,5.40
2018-08-03T13:15:47.208Z,6.83
2018-08-03T13:18:16.270Z,8.50
2018-08-03T13:20:45.353Z,5.80
2018-08-03T13:23:14.391Z,8.03
2018-08-03T13:25:43.484Z,9.50
2018-08-03T13:28:12.560Z,10.55
2018-08-03T13:30:41.940Z,5.25
2018-08-03T13:33:11.653Z,5.50
2018-08-03T13:35:40.950Z,4.97
2018-08-03T13:38:10.015Z,6.78
2018-08-03T13:40:39.670Z,5.37
2018-08-03T13:43:08.699Z,6.20
2018-08-03T13:45:38.103Z,6.28
2018-08-03T13:48:07.223Z,9.45
2018-08-03T13:50:36.270Z,7.28
2018-08-03T13:53:05.772Z,9.10
2018-08-03T13:55:34.855Z,5.17
2018-08-03T13:58:04.610Z,13.45
2018-08-03T14:00:33.707Z,9.43
2018-08-03T14:03:03.559Z,10.50
2018-08-03T14:05:32.610Z,5.42
2018-08-03T14:08:01.684Z,5.75
2018-08-03T14:10:30.731Z,7.08
2018-08-03T14:12:59.795Z,5.20
2018-08-03T14:15:29.195Z,5.50
2018-08-03T14:17:58.227Z,8.08
2018-08-03T14:20:27.278Z,4.70
2018-08-03T14:22:56.335Z,6.62
2018-08-03T14:25:25.107Z,6.17
2018-08-03T14:27:54.328Z,6.92
2018-08-03T14:30:23.407Z,5.62
2018-08-03T14:32:52.500Z,4.95
2018-08-03T14:35:21.558Z,5.05
2018-08-03T14:37:50.642Z,6.12
2018-08-03T14:40:19.796Z,5.12
2018-08-03T14:42:48.842Z,4.95
2018-08-03T14:45:17.890Z,5.35
2018-08-03T14:47:46.938Z,9.45
2018-08-03T14:50:16.355Z,7.35
2018-08-03T14:52:45.387Z,4.45
2018-08-03T14:55:14.447Z,5.30
2018-08-03T14:57:43.484Z,4.87
2018-08-03T15:00:12.898Z,4.80
2018-08-03T15:02:42.083Z,8.35
2018-08-03T15:05:11.455Z,5.30
2018-08-03T15:07:40.542Z,8.18
2018-08-03T15:10:09.775Z,4.70
2018-08-03T15:12:39.199Z,9.03
2018-08-03T15:15:08.606Z,6.95
2018-08-03T15:17:38.060Z,5.25
2018-08-03T15:20:08.405Z,5.22
2018-08-03T15:22:37.484Z,7.28
2018-08-03T15:25:06.539Z,5.80
2018-08-03T15:27:35.766Z,4.95
2018-08-03T15:30:05.360Z,5.03
2018-08-03T15:32:34.389Z,4.72
2018-08-03T15:35:03.480Z,5.03
2018-08-03T15:37:32.526Z,5.60
2018-08-03T15:40:01.589Z,8.55
2018-08-03T15:42:30.628Z,4.62
2018-08-03T15:44:59.700Z,7.05
2018-08-03T15:47:28.779Z,5.72
2018-08-03T15:49:57.810Z,7.05
2018-08-03T15:52:26.876Z,4.47
2018-08-03T15:54:56.278Z,6.50
2018-08-03T15:57:25.300Z,4.62
2018-08-03T15:59:54.343Z,6.20
2018-08-03T16:02:23.415Z,4.92
2018-08-03T16:04:52.560Z,4.95
2018-08-03T16:07:21.663Z,5.83
2018-08-03T16:09:50.710Z,4.87
2018-08-03T16:12:19.847Z,7.47
2018-08-03T16:14:48.886Z,5.03
2018-08-03T16:17:17.944Z,4.33
2018-08-03T16:19:47.036Z,5.10
2018-08-03T16:22:16.115Z,5.20
2018-08-03T16:24:45.196Z,4.70
2018-08-03T16:27:14.268Z,6.78
2018-08-03T16:29:43.312Z,4.65
2018-08-03T16:32:12.362Z,5.00
2018-08-03T16:34:41.464Z,7.40
2018-08-03T16:37:10.520Z,7.42
2018-08-03T16:39:39.538Z,5.83
2018-08-03T16:42:08.595Z,7.50
2018-08-03T16:44:37.095Z,6.95
2018-08-03T16:47:06.728Z,4.42
2018-08-03T16:49:35.790Z,5.53
2018-08-03T16:52:04.350Z,5.85
2018-08-03T16:54:33.389Z,4.20
2018-08-03T16:57:02.476Z,5.22
2018-08-03T16:59:31.694Z,10.85
2018-08-03T17:02:01.132Z,7.95
2018-08-03T17:04:30.298Z,8.33
2018-08-03T17:06:59.375Z,6.28
2018-08-03T17:09:28.576Z,6.42
2018-08-03T17:11:57.970Z,5.62
2018-08-03T17:14:28.721Z,6.03
2018-08-03T17:16:58.746Z,5.12
2018-08-03T17:19:28.355Z,4.45
2018-08-03T17:21:59.336Z,5.65
2018-08-03T17:24:28.465Z,8.20
2018-08-03T17:26:57.578Z,5.92
2018-08-03T17:29:26.846Z,5.35
2018-08-03T17:31:56.367Z,9.07
2018-08-03T17:34:25.015Z,9.33
2018-08-03T17:36:53.630Z,6.60
2018-08-03T17:39:22.342Z,4.73
2018-08-03T17:41:51.251Z,5.20
2018-08-03T17:44:20.075Z,5.20
2018-08-03T17:46:49.116Z,5.53
2018-08-03T17:49:18.247Z,8.45
2018-08-03T17:51:46.750Z,6.07
2018-08-03T17:54:14.930Z,5.77
2018-08-03T17:56:43.834Z,7.47
2018-08-03T17:59:12.416Z,4.80
2018-08-03T18:01:43.713Z,5.17
2018-08-03T18:04:13.280Z,7.63
2018-08-03T18:10:13.408Z,4.60
2018-08-03T18:12:41.971Z,6.23
2018-08-03T18:15:10.471Z,4.37
2018-08-03T18:17:38.977Z,6.33
2018-08-03T18:20:07.791Z,10.43
2018-08-03T18:22:36.335Z,6.00
2018-08-03T18:25:05.229Z,5.77
2018-08-03T18:27:33.922Z,6.63
2018-08-03T18:30:02.438Z,7.03
2018-08-03T18:32:30.943Z,7.77
2018-08-03T18:34:59.621Z,8.07
2018-08-03T18:37:28.348Z,8.03
2018-08-03T18:39:57.209Z,5.07
2018-08-03T18:42:25.757Z,4.90
2018-08-03T18:44:54.266Z,10.57
2018-08-03T18:47:22.923Z,4.93
2018-08-03T18:49:51.536Z,9.13
2018-08-03T18:52:20.041Z,7.00
2018-08-03T18:54:48.683Z,6.50
2018-08-03T18:57:17.183Z,6.50
2018-08-03T18:59:45.687Z,6.50
2018-08-03T19:02:14.198Z,9.13
2018-08-03T19:04:42.708Z,5.10
2018-08-03T19:07:11.218Z,5.67
2018-08-03T19:09:39.730Z,7.60
2018-08-03T19:12:08.592Z,7.97
2018-08-03T19:14:37.106Z,4.20
2018-08-03T19:17:07.271Z,7.00
2018-08-03T19:19:36.254Z,4.90
2018-08-03T19:22:04.816Z,5.50
2018-08-03T19:24:33.451Z,10.50
2018-08-03T19:27:01.991Z,4.57
2018-08-03T19:29:30.174Z,5.93
2018-08-03T19:31:59.031Z,9.63
2018-08-03T19:34:27.667Z,6.80
2018-08-03T19:36:56.192Z,7.00
2018-08-03T19:39:24.687Z,4.73
2018-08-03T19:41:53.186Z,6.20
2018-08-03T19:44:21.366Z,6.67
2018-08-03T19:46:49.870Z,5.43
2018-08-03T19:49:18.348Z,9.13
2018-08-03T19:51:46.849Z,5.37
2018-08-03T19:54:15.340Z,3.87
2018-08-03T19:56:44.224Z,5.10
2018-08-03T19:59:12.739Z,4.80
2018-08-03T20:01:41.416Z,5.70
2018-08-03T20:04:09.958Z,4.63
2018-08-03T20:06:38.592Z,6.10
2018-08-03T20:09:09.443Z,4.90
2018-08-03T20:11:37.935Z,6.73
2018-08-03T20:14:06.575Z,5.40
2018-08-03T20:16:35.426Z,9.07
2018-08-03T20:19:04.032Z,3.77
2018-08-03T20:21:32.515Z,4.60
2018-08-03T20:24:01.039Z,7.57
2018-08-03T20:26:29.887Z,5.60
2018-08-03T20:28:58.825Z,3.60
2018-08-03T20:31:27.304Z,4.33
2018-08-03T20:33:55.789Z,4.43
2018-08-03T20:36:24.340Z,7.53
2018-08-03T20:38:52.842Z,4.63
2018-08-03T20:41:21.335Z,5.77
2018-08-03T20:43:49.856Z,4.83
2018-08-03T20:46:18.344Z,5.50
2018-08-03T20:48:46.832Z,3.70
2018-08-03T20:51:15.307Z,4.83
2018-08-03T20:53:43.481Z,3.63
2018-08-03T20:56:12.088Z,5.23
2018-08-03T20:58:40.601Z,5.53
2018-08-03T21:01:09.104Z,7.30
2018-08-03T21:03:37.984Z,8.07
2018-08-03T21:06:06.518Z,5.63
2018-08-03T21:08:35.060Z,4.90
2018-08-03T21:11:03.690Z,3.57
2018-08-03T21:13:32.203Z,4.93
2018-08-03T21:16:00.719Z,3.30
2018-08-03T21:18:29.318Z,5.33
2018-08-03T21:20:57.901Z,7.33
2018-08-03T21:23:26.530Z,4.60
2018-08-03T21:25:55.063Z,4.37
2018-08-03T21:28:23.555Z,5.03
2018-08-03T21:30:52.118Z,8.53
2018-08-03T21:33:20.591Z,8.13
2018-08-03T21:35:49.123Z,4.97
2018-08-03T21:38:17.640Z,4.07
2018-08-03T21:40:46.120Z,5.87
2018-08-03T21:43:14.643Z,4.50
2018-08-03T21:45:43.161Z,6.50
2018-08-03T21:48:11.675Z,5.10
2018-08-03T21:50:40.189Z,8.43
2018-08-03T21:53:08.712Z,6.70
2018-08-03T21:55:37.365Z,3.70
2018-08-03T21:58:05.848Z,6.43
2018-08-03T22:00:34.378Z,5.37
2018-08-03T22:03:02.862Z,5.70
2018-08-03T22:05:31.434Z,5.80
2018-08-03T22:07:59.947Z,4.87
2018-08-03T22:10:28.839Z,4.23
2018-08-03T22:12:57.345Z,3.00
2018-08-03T22:15:25.854Z,3.97
2018-08-03T22:17:54.367Z,5.77
2018-08-03T22:20:22.871Z,4.80
2018-08-03T22:22:51.359Z,4.60
2018-08-03T22:25:20.243Z,4.07
2018-08-03T22:27:48.718Z,3.73
2018-08-03T22:30:17.587Z,3.70
2018-08-03T22:32:46.152Z,6.10
2018-08-03T22:35:14.791Z,3.10
2018-08-03T22:37:43.302Z,4.17
2018-08-03T22:40:11.930Z,5.63
2018-08-03T22:42:40.477Z,5.27
2018-08-03T22:45:09.222Z,7.93
2018-08-03T22:47:37.696Z,4.20
2018-08-03T22:50:06.203Z,4.67
2018-08-03T22:52:36.462Z,2.80
2018-08-03T22:55:05.008Z,4.03
2018-08-03T22:57:33.490Z,2.77
2018-08-03T23:00:02.059Z,4.90
2018-08-03T23:02:30.610Z,2.83
2018-08-03T23:04:59.471Z,5.90
2018-08-03T23:07:27.990Z,4.87
2018-08-03T23:09:56.674Z,4.63
2018-08-03T23:12:25.155Z,3.73
2018-08-03T23:14:53.651Z,3.23
2018-08-03T23:17:22.157Z,3.17
2018-08-03T23:19:50.668Z,3.30
2018-08-03T23:22:19.198Z,3.13
2018-08-03T23:24:47.683Z,6.43
2018-08-03T23:27:16.164Z,6.90
2018-08-03T23:29:44.674Z,4.00
2018-08-03T23:32:13.168Z,4.07
2018-08-03T23:34:41.843Z,5.80
2018-08-03T23:37:11.047Z,3.67
2018-08-03T23:39:39.555Z,3.87
2018-08-03T23:42:08.077Z,3.20
2018-08-03T23:44:36.587Z,7.67
2018-08-03T23:47:05.159Z,3.53
2018-08-03T23:49:33.665Z,3.63
2018-08-03T23:52:02.891Z,5.50
2018-08-03T23:54:31.382Z,3.43
2018-08-03T23:56:59.874Z,6.13
2018-08-03T23:59:28.399Z,4.57
